METAR Data
IDs: Format: Raw Decoded Include TAF

Data at: 0132 UTC 01 Mar 2021

KLXL 010115Z AUTO 29005KT 10SM SCT110 M07/M15 A3002 RMK AO2